Time;durP1;ratioP1;P1;durP2;ratioP2;P2;SDS_P1;SDS_P2;PMS_P1;PMS_P2;Temp;Humidity;BMP_temperature;BMP_pressure;BME280_temperature;BME280_humidity;BME280_pressure;Samples;Min_cycle;Max_cycle;Signal;HPM_P1;HPM_P2
2021/10/12 00:02:02;;;;;;;1999.90;999.90;;;;;;;5.12;55.07;101581.50;4997602;28;97406;-70
2021/10/12 00:04:30;;;;;;;1999.90;999.90;;;;;;;5.14;54.76;101572.88;4996880;28;97940;-71
2021/10/12 00:06:59;;;;;;;1999.90;999.90;;;;;;;5.18;54.52;101576.59;4979750;28;99279;-70
2021/10/12 00:09:26;;;;;;;1999.90;999.90;;;;;;;5.16;54.76;101571.25;4979905;28;99002;-72
2021/10/12 00:11:55;;;;;;;1999.90;999.90;;;;;;;5.17;55.04;101566.88;5034922;27;97438;-72
2021/10/12 00:14:23;;;;;;;1999.90;999.90;;;;;;;5.48;54.83;101565.09;5060335;27;96778;-71
2021/10/12 00:16:52;;;;;;;1999.90;999.90;;;;;;;5.34;55.54;101563.41;5057960;27;97861;-72
2021/10/12 00:19:22;;;;;;;1999.90;999.90;;;;;;;5.65;54.75;101566.88;5056735;27;100399;-71
2021/10/12 00:21:50;;;;;;;1999.90;999.90;;;;;;;5.86;55.16;101556.56;5058543;27;97604;-72
2021/10/12 00:24:17;;;;;;;1999.90;999.90;;;;;;;5.60;55.84;101551.63;5059764;27;97405;-71
2021/10/12 00:26:45;;;;;;;1999.90;999.90;;;;;;;5.51;56.14;101549.41;5057859;27;97606;-70
2021/10/12 00:29:15;;;;;;;1999.90;999.90;;;;;;;5.46;56.05;101547.34;5060055;27;98787;-69
2021/10/12 00:31:43;;;;;;;1999.90;999.90;;;;;;;5.40;55.88;101541.72;5060429;27;97391;-71
2021/10/12 00:34:10;;;;;;;1999.90;999.90;;;;;;;5.37;55.91;101536.28;5061024;27;97769;-70
2021/10/12 00:36:39;;;;;;;1999.90;999.90;;;;;;;5.33;55.87;101532.59;5057554;27;100575;-72
2021/10/12 00:39:07;;;;;;;1999.90;999.90;;;;;;;5.27;56.08;101529.59;5060432;27;97885;-71
2021/10/12 00:41:35;;;;;;;1999.90;999.90;;;;;;;5.26;55.91;101532.16;5060642;27;97319;-71
2021/10/12 00:44:03;;;;;;;1999.90;999.90;;;;;;;5.22;56.04;101531.09;5059501;27;97974;-72
2021/10/12 00:46:30;;;;;;;1999.90;999.90;;;;;;;5.22;56.06;101531.09;5059051;27;97536;-71
2021/10/12 00:48:59;;;;;;;1999.90;999.90;;;;;;;5.23;55.76;101527.63;5059336;27;98595;-70
2021/10/12 00:51:27;;;;;;;1999.90;999.90;;;;;;;5.20;55.94;101516.91;5060635;27;97643;-71
2021/10/12 00:53:56;;;;;;;1999.90;999.90;;;;;;;5.20;55.68;101522.19;5059578;27;98371;-71
2021/10/12 00:56:26;;;;;;;1999.90;999.90;;;;;;;5.17;55.78;101522.91;5058543;27;100319;-72
2021/10/12 00:58:54;;;;;;;1999.90;999.90;;;;;;;5.14;55.94;101512.19;5060388;27;96848;-71
2021/10/12 01:01:22;;;;;;;1999.90;999.90;;;;;;;5.10;56.01;101514.59;5041050;27;97033;-72
2021/10/12 01:03:50;;;;;;;1999.90;999.90;;;;;;;5.06;56.16;101507.34;5059617;27;97832;-70
2021/10/12 01:06:17;;;;;;;1999.90;999.90;;;;;;;5.03;56.13;101509.78;5058634;27;97797;-70
2021/10/12 01:08:45;;;;;;;1999.90;999.90;;;;;;;5.00;56.10;101501.69;5056668;27;98817;-70
2021/10/12 01:11:15;;;;;;;1999.90;999.90;;;;;;;4.99;56.10;101498.13;5059581;27;97787;-70
2021/10/12 01:13:46;;;;;;;1999.90;999.90;;;;;;;4.98;56.01;101492.78;5059386;27;97753;-70
2021/10/12 01:16:15;;;;;;;1999.90;999.90;;;;;;;4.95;56.06;101497.91;5059605;27;99008;-70
2021/10/12 01:18:55;;;;;;;1999.90;999.90;;;;;;;4.92;56.66;101492.44;5060005;27;97931;-70
2021/10/12 01:21:25;;;;;;;1999.90;999.90;;;;;;;4.90;55.88;101489.72;5057526;27;97792;-68
2021/10/12 01:23:53;;;;;;;1999.90;999.90;;;;;;;4.86;56.21;101486.84;5057562;27;97399;-70
2021/10/12 01:26:21;;;;;;;1999.90;999.90;;;;;;;4.83;56.35;101489.28;5057803;27;97688;-69
2021/10/12 01:28:49;;;;;;;1999.90;999.90;;;;;;;4.81;56.34;101485.69;5058827;27;98337;-69
2021/10/12 01:31:19;;;;;;;1999.90;999.90;;;;;;;4.80;56.35;101482.13;5059689;27;97203;-68
2021/10/12 01:33:47;;;;;;;1999.90;999.90;;;;;;;4.78;56.27;101481.16;5058420;27;97213;-69
2021/10/12 01:36:15;;;;;;;1999.90;999.90;;;;;;;4.78;55.92;101472.31;5059244;27;97689;-70
2021/10/12 01:38:44;;;;;;;1999.90;999.90;;;;;;;4.77;56.35;101473.16;5056726;27;100596;-70
2021/10/12 01:41:12;;;;;;;1999.90;999.90;;;;;;;4.75;56.04;101461.63;5057766;27;96815;-70
2021/10/12 01:43:41;;;;;;;1999.90;999.90;;;;;;;4.76;56.25;101463.41;5058144;27;97975;-71
2021/10/12 01:46:09;;;;;;;1999.90;999.90;;;;;;;4.75;56.12;101453.72;5057196;27;99334;-70
2021/10/12 01:48:38;;;;;;;1999.90;999.90;;;;;;;4.73;56.07;101448.34;5056782;27;100099;-70
2021/10/12 01:51:06;;;;;;;1999.90;999.90;;;;;;;4.68;56.36;101446.28;5060474;27;97174;-69
2021/10/12 01:53:34;;;;;;;1999.90;999.90;;;;;;;4.67;56.20;101447.09;5059302;27;97197;-68
2021/10/12 01:56:04;;;;;;;1999.90;999.90;;;;;;;4.66;56.10;101440.94;5058093;27;98021;-70
2021/10/12 01:58:31;;;;;;;1999.90;999.90;;;;;;;4.68;56.37;101433.09;5060080;27;98848;-70
2021/10/12 02:00:59;;;;;;;1999.90;999.90;;;;;;;4.68;56.13;101431.34;5056641;27;97276;-70
2021/10/12 02:03:28;;;;;;;1999.90;999.90;;;;;;;4.67;56.53;101426.00;5057036;27;96989;-70
2021/10/12 02:05:56;;;;;;;1999.90;999.90;;;;;;;4.62;56.60;101422.22;5058259;27;97641;-70
2021/10/12 02:08:24;;;;;;;1999.90;999.90;;;;;;;4.60;56.65;101430.03;5057912;27;99329;-70
2021/10/12 02:10:52;;;;;;;1999.90;999.90;;;;;;;4.57;56.72;101415.78;5059677;27;97589;-70
2021/10/12 02:13:21;;;;;;;1999.90;999.90;;;;;;;4.55;56.82;101412.16;5058844;27;97881;-71
2021/10/12 02:15:49;;;;;;;1999.90;999.90;;;;;;;4.53;57.22;101412.09;5056679;27;99643;-70
2021/10/12 02:18:17;;;;;;;1999.90;999.90;;;;;;;4.55;56.69;101409.53;5058559;27;97586;-70
2021/10/12 02:20:45;;;;;;;1999.90;999.90;;;;;;;4.53;56.96;101411.16;5059435;27;97297;-69
2021/10/12 02:23:12;;;;;;;1999.90;999.90;;;;;;;4.52;56.83;101406.72;5058248;27;98022;-70
2021/10/12 02:25:40;;;;;;;1999.90;999.90;;;;;;;4.51;56.98;101404.91;5057178;27;99652;-69
2021/10/12 02:28:08;;;;;;;1999.90;999.90;;;;;;;4.52;56.92;101406.72;5059076;27;99308;-69
2021/10/12 02:30:38;;;;;;;1999.90;999.90;;;;;;;4.51;56.99;101413.72;5060437;27;97910;-70
2021/10/12 02:33:05;;;;;;;1999.90;999.90;;;;;;;4.83;56.52;101407.56;5057973;27;97022;-68
2021/10/12 02:35:34;;;;;;;1999.90;999.90;;;;;;;4.67;57.32;101394.38;5059581;27;97756;-70
2021/10/12 02:38:01;;;;;;;1999.90;999.90;;;;;;;4.96;56.57;101389.84;5056656;27;99271;-70
2021/10/12 02:40:29;;;;;;;1999.90;999.90;;;;;;;4.75;57.72;101393.06;5058403;27;97391;-70
2021/10/12 02:42:57;;;;;;;1999.90;999.90;;;;;;;4.71;57.82;101396.34;5060153;27;97896;-70
2021/10/12 02:45:25;;;;;;;1999.90;999.90;;;;;;;4.70;57.67;101381.38;5059167;27;98779;-70
2021/10/12 02:47:54;;;;;;;1999.90;999.90;;;;;;;4.66;57.80;101377.66;5059838;27;98594;-70
2021/10/12 02:50:21;;;;;;;1999.90;999.90;;;;;;;4.69;57.53;101366.38;5062142;27;97666;-70
2021/10/12 02:52:50;;;;;;;1999.90;999.90;;;;;;;4.68;57.59;101361.94;5062353;27;97220;-69
2021/10/12 02:55:18;;;;;;;1999.90;999.90;;;;;;;4.68;57.60;101370.72;5063387;27;97550;-69
2021/10/12 02:57:45;;;;;;;1999.90;999.90;;;;;;;4.66;57.03;101372.41;5062958;27;97454;-70
2021/10/12 03:00:18;;;;;;;1999.90;999.90;;;;;;;4.64;57.86;101365.22;5060043;27;99151;-70
2021/10/12 03:02:46;;;;;;;1999.90;999.90;;;;;;;4.65;57.53;101353.84;5063854;27;97959;-70
2021/10/12 03:05:16;;;;;;;1999.90;999.90;;;;;;;4.64;57.85;101357.31;5043945;27;97897;-67
2021/10/12 03:07:43;;;;;;;1999.90;999.90;;;;;;;4.66;57.62;101360.94;5058224;27;101204;-70
2021/10/12 03:10:11;;;;;;;1999.90;999.90;;;;;;;4.65;57.58;101354.75;5062026;27;97638;-69
2021/10/12 03:12:39;;;;;;;1999.90;999.90;;;;;;;4.67;57.42;101345.19;5044948;27;97121;-71
2021/10/12 03:15:08;;;;;;;1999.90;999.90;;;;;;;4.68;57.40;101348.75;5061036;27;99241;-71
2021/10/12 03:17:35;;;;;;;1999.90;999.90;;;;;;;4.69;57.17;101343.56;5059673;27;101085;-70
2021/10/12 03:20:05;;;;;;;1999.90;999.90;;;;;;;4.71;57.52;101338.38;5061990;27;97852;-72
2021/10/12 03:22:39;;;;;;;1999.90;999.90;;;;;;;4.76;57.00;101343.06;5044470;27;99046;-70
2021/10/12 03:25:07;;;;;;;1999.90;999.90;;;;;;;4.78;57.27;101329.94;5043459;27;100821;-69
2021/10/12 03:27:35;;;;;;;1999.90;999.90;;;;;;;4.80;56.97;101325.66;5061466;27;97586;-69
2021/10/12 03:30:03;;;;;;;1999.90;999.90;;;;;;;4.76;57.23;101318.41;5062145;27;97628;-68
2021/10/12 03:32:31;;;;;;;1999.90;999.90;;;;;;;4.74;57.44;101320.97;5062364;27;97485;-67
2021/10/12 03:34:59;;;;;;;1999.90;999.90;;;;;;;4.76;57.33;101318.41;5059516;27;100266;-72
2021/10/12 03:37:28;;;;;;;1999.90;999.90;;;;;;;4.79;56.90;101321.22;5054026;27;98470;-66
2021/10/12 03:39:57;;;;;;;1999.90;999.90;;;;;;;4.79;56.98;101311.56;5063227;27;97169;-69
2021/10/12 03:42:27;;;;;;;1999.90;999.90;;;;;;;4.80;56.90;101302.84;5061679;27;97310;-71
2021/10/12 03:44:55;;;;;;;1999.90;999.90;;;;;;;4.76;57.31;101311.41;5060947;27;99329;-71
2021/10/12 03:47:26;;;;;;;1999.90;999.90;;;;;;;4.79;57.00;101302.78;5061635;27;98138;-71
2021/10/12 03:49:54;;;;;;;1999.90;999.90;;;;;;;4.81;57.02;101298.50;5060720;27;96933;-71
2021/10/12 03:52:22;;;;;;;1999.90;999.90;;;;;;;4.82;56.67;101308.19;5061304;27;97254;-70
2021/10/12 03:54:51;;;;;;;1999.90;999.90;;;;;;;4.81;56.76;101296.75;5060563;27;97617;-70
2021/10/12 03:57:20;;;;;;;1999.90;999.90;;;;;;;4.82;56.79;101297.66;5060482;27;100036;-68
2021/10/12 03:59:48;;;;;;;1999.90;999.90;;;;;;;4.80;57.04;101296.66;5060801;27;98045;-69
2021/10/12 04:02:15;;;;;;;1999.90;999.90;;;;;;;4.79;57.31;101294.88;5053708;27;97736;-68
2021/10/12 04:04:43;;;;;;;1999.90;999.90;;;;;;;4.79;57.00;101289.59;5050776;27;98626;-72
2021/10/12 04:07:11;;;;;;;1999.90;999.90;;;;;;;4.80;56.94;101286.13;5035267;27;99505;-69
2021/10/12 04:09:39;;;;;;;1999.90;999.90;;;;;;;4.80;56.79;101286.13;5060480;27;98031;-69
2021/10/12 04:12:07;;;;;;;1999.90;999.90;;;;;;;4.80;57.02;101287.03;5060528;27;97492;-68
2021/10/12 04:14:37;;;;;;;1999.90;999.90;;;;;;;4.78;57.11;101277.22;5060878;27;98681;-69
2021/10/12 04:17:05;;;;;;;1999.90;999.90;;;;;;;4.78;57.41;101277.22;5059115;27;99244;-71
2021/10/12 04:19:32;;;;;;;1999.90;999.90;;;;;;;4.78;57.26;101266.69;5060588;27;97304;-72
2021/10/12 04:22:00;;;;;;;1999.90;999.90;;;;;;;4.76;57.22;101263.97;5060823;27;96721;-69
2021/10/12 04:24:28;;;;;;;1999.90;999.90;;;;;;;4.77;57.08;101260.50;5043514;27;100398;-68
2021/10/12 04:26:57;;;;;;;1999.90;999.90;;;;;;;4.81;56.90;101251.03;5058776;27;97888;-67
2021/10/12 04:29:25;;;;;;;1999.90;999.90;;;;;;;5.09;56.34;101246.34;5042317;27;97442;-69
2021/10/12 04:31:55;;;;;;;1999.90;999.90;;;;;;;4.92;57.35;101234.91;5075614;27;97295;-69
2021/10/12 04:34:23;;;;;;;1999.90;999.90;;;;;;;4.94;57.35;101245.53;5059449;27;100019;-68
2021/10/12 04:36:51;;;;;;;1999.90;999.90;;;;;;;4.92;57.57;101239.28;5060383;27;97506;-69
2021/10/12 04:39:19;;;;;;;1999.90;999.90;;;;;;;4.93;57.41;101228.84;5040307;27;98009;-70
2021/10/12 04:41:47;;;;;;;1999.90;999.90;;;;;;;4.94;57.46;101235.00;5058045;27;97829;-68
2021/10/12 04:44:15;;;;;;;1999.90;999.90;;;;;;;4.95;57.13;101226.28;5059375;27;99468;-69
2021/10/12 04:46:44;;;;;;;1999.90;999.90;;;;;;;4.94;57.22;101221.81;5059264;27;98086;-69
2021/10/12 04:49:13;;;;;;;1999.90;999.90;;;;;;;5.23;56.68;101229.47;5039491;27;97557;-71
2021/10/12 04:51:41;;;;;;;1999.90;999.90;;;;;;;5.41;56.92;101216.31;5041936;27;97562;-69
2021/10/12 04:54:09;;;;;;;1999.90;999.90;;;;;;;5.57;57.00;101216.22;5055315;27;99088;-72
2021/10/12 04:56:37;;;;;;;1999.90;999.90;;;;;;;5.36;57.38;101217.81;5057351;27;99307;-69
2021/10/12 04:59:05;;;;;;;1999.90;999.90;;;;;;;5.28;57.58;101220.09;5060804;27;97333;-70
2021/10/12 05:01:33;;;;;;;1999.90;999.90;;;;;;;5.23;57.86;101220.69;5061160;27;97097;-68
2021/10/12 05:04:05;;;;;;;1999.90;999.90;;;;;;;5.19;57.49;101222.25;5050064;27;98022;-71
2021/10/12 05:06:35;;;;;;;1999.90;999.90;;;;;;;5.48;57.20;101224.59;5067366;27;99295;-71
2021/10/12 05:09:03;;;;;;;1999.90;999.90;;;;;;;5.32;57.76;101216.72;5059069;27;97424;-71
2021/10/12 05:11:32;;;;;;;1999.90;999.90;;;;;;;5.21;58.42;101233.78;5059505;27;98079;-72
2021/10/12 05:14:00;;;;;;;1999.90;999.90;;;;;;;5.18;58.41;101218.72;5061533;27;98055;-70
2021/10/12 05:16:29;;;;;;;1999.90;999.90;;;;;;;5.14;58.23;101218.47;5057322;27;100616;-70
2021/10/12 05:18:59;;;;;;;1999.90;999.90;;;;;;;5.13;58.04;101214.03;5058972;27;96870;-69
2021/10/12 05:21:27;;;;;;;1999.90;999.90;;;;;;;5.09;58.32;101219.97;5042601;27;97889;-71
2021/10/12 05:23:57;;;;;;;1999.90;999.90;;;;;;;5.06;58.64;101214.56;5058180;27;99730;-72
2021/10/12 05:26:25;;;;;;;1999.90;999.90;;;;;;;5.05;58.41;101199.56;5057146;27;100285;-70
2021/10/12 05:28:55;;;;;;;1999.90;999.90;;;;;;;5.02;58.61;101204.66;5058526;27;97524;-68
2021/10/12 05:31:23;;;;;;;1999.90;999.90;;;;;;;5.01;58.31;101213.41;5042570;27;97703;-68
2021/10/12 05:33:51;;;;;;;1999.90;999.90;;;;;;;5.01;58.32;101202.84;5060102;27;99218;-67
2021/10/12 05:36:19;;;;;;;1999.90;999.90;;;;;;;4.98;58.56;101202.69;5040228;27;100160;-70
2021/10/12 05:38:48;;;;;;;1999.90;999.90;;;;;;;4.97;58.60;101200.88;5054503;27;97595;-71
2021/10/12 05:41:18;;;;;;;1999.90;999.90;;;;;;;4.98;58.50;101202.69;5040914;27;99188;-69
2021/10/12 05:43:47;;;;;;;1999.90;999.90;;;;;;;4.94;58.67;101190.16;5058132;27;98860;-71
2021/10/12 05:46:14;;;;;;;1999.90;999.90;;;;;;;4.95;58.45;101194.63;5056697;27;98809;-70
2021/10/12 05:48:42;;;;;;;1999.90;999.90;;;;;;;4.96;58.26;101192.06;5058832;27;98355;-70
2021/10/12 05:51:11;;;;;;;1999.90;999.90;;;;;;;4.94;58.53;101195.44;5058959;27;97070;-71
2021/10/12 05:53:44;;;;;;;1999.90;999.90;;;;;;;4.94;58.49;101191.06;5060031;27;97318;-71
2021/10/12 05:56:15;;;;;;;1999.90;999.90;;;;;;;4.92;58.47;101192.72;5057035;27;100576;-69
2021/10/12 05:58:46;;;;;;;1999.90;999.90;;;;;;;4.94;58.59;101201.63;5058009;27;97100;-70
2021/10/12 06:01:14;;;;;;;1999.90;999.90;;;;;;;4.96;58.29;101207.88;5059949;27;98154;-70
2021/10/12 06:03:42;;;;;;;1999.90;999.90;;;;;;;4.94;58.44;101196.34;5058869;27;98641;-69
2021/10/12 06:06:11;;;;;;;1999.90;999.90;;;;;;;4.92;58.66;101200.63;5057875;27;99960;-69
2021/10/12 06:08:39;;;;;;;1999.90;999.90;;;;;;;4.92;58.36;101189.16;5058693;27;97597;-68
2021/10/12 06:11:08;;;;;;;1999.90;999.90;;;;;;;4.89;58.55;101208.41;5042049;27;97240;-70
2021/10/12 06:13:37;;;;;;;1999.90;999.90;;;;;;;4.88;58.38;101198.66;5058044;27;98891;-68
2021/10/12 06:16:07;;;;;;;1999.90;999.90;;;;;;;4.88;58.32;101193.41;5060025;27;97667;-70
2021/10/12 06:18:36;;;;;;;1999.90;999.90;;;;;;;4.87;58.69;101194.22;5054405;27;97763;-70
2021/10/12 06:21:05;;;;;;;1999.90;999.90;;;;;;;4.87;58.47;101188.03;5042215;27;97735;-69
2021/10/12 06:23:35;;;;;;;1999.90;999.90;;;;;;;4.89;58.47;101183.75;5059945;27;98053;-69
2021/10/12 06:26:06;;;;;;;1999.90;999.90;;;;;;;4.88;58.62;101184.59;5063468;27;99195;-69
2021/10/12 06:28:35;;;;;;;1999.90;999.90;;;;;;;4.91;58.21;101184.75;5061540;27;97380;-67
2021/10/12 06:31:04;;;;;;;1999.90;999.90;;;;;;;4.95;58.11;101181.44;5061347;27;96846;-70
2021/10/12 06:33:33;;;;;;;1999.90;999.90;;;;;;;4.95;58.04;101184.06;5063370;27;98583;-69
2021/10/12 06:36:01;;;;;;;1999.90;999.90;;;;;;;4.96;58.03;101177.97;5061950;27;99285;-67
2021/10/12 06:38:29;;;;;;;1999.90;999.90;;;;;;;4.96;58.03;101177.97;5061879;27;98095;-68
2021/10/12 06:40:57;;;;;;;1999.90;999.90;;;;;;;4.96;57.96;101163.06;5079134;27;97322;-67
2021/10/12 06:43:25;;;;;;;1999.90;999.90;;;;;;;4.95;57.92;101155.97;5061757;27;98177;-70
2021/10/12 06:45:52;;;;;;;1999.90;999.90;;;;;;;4.92;58.06;101160.16;5043831;27;99854;-71
2021/10/12 06:48:21;;;;;;;1999.90;999.90;;;;;;;4.94;57.83;101161.16;5063326;27;97614;-68
2021/10/12 06:50:50;;;;;;;1999.90;999.90;;;;;;;4.97;57.63;101156.94;5043425;27;97387;-69
2021/10/12 06:53:42;;;;;;;1999.90;999.90;;;;;;;5.01;57.71;101160.66;5064779;27;97791;-71
2021/10/12 06:56:12;;;;;;;1999.90;999.90;;;;;;;5.01;57.57;101151.00;5061179;27;98647;-69
2021/10/12 06:58:40;;;;;;;1999.90;999.90;;;;;;;5.02;57.75;101147.56;5045332;27;97927;-69
2021/10/12 07:01:21;;;;;;;1999.90;999.90;;;;;;;5.03;57.68;101153.72;5045011;27;96927;-69
2021/10/12 07:03:49;;;;;;;1999.90;999.90;;;;;;;5.06;57.75;101162.69;5060362;27;98541;-68
2021/10/12 07:06:19;;;;;;;1999.90;999.90;;;;;;;5.07;58.04;101168.88;5045455;27;101576;-70
2021/10/12 07:08:47;;;;;;;1999.90;999.90;;;;;;;5.05;58.24;101166.16;5060813;27;97481;-69
2021/10/12 07:11:15;;;;;;;1999.90;999.90;;;;;;;5.05;58.14;101173.16;5061866;27;97836;-71
2021/10/12 07:13:46;;;;;;;1999.90;999.90;;;;;;;5.06;58.08;101167.09;5042581;27;100439;-71
2021/10/12 07:16:15;;;;;;;1999.90;999.90;;;;;;;5.09;58.03;101156.69;5044457;27;100240;-69
2021/10/12 07:18:44;;;;;;;1999.90;999.90;;;;;;;5.14;57.73;101150.78;5045591;27;97391;-71
2021/10/12 07:21:11;;;;;;;1999.90;999.90;;;;;;;5.18;57.39;101149.22;5063182;27;97985;-68
2021/10/12 07:23:41;;;;;;;1999.90;999.90;;;;;;;5.25;57.51;101156.59;5060685;27;98904;-67
2021/10/12 07:26:09;;;;;;;1999.90;999.90;;;;;;;5.31;57.45;101151.63;5062704;27;98718;-70
2021/10/12 07:28:37;;;;;;;1999.90;999.90;;;;;;;5.33;57.30;101149.97;5062713;27;97700;-70
2021/10/12 07:31:17;;;;;;;1999.90;999.90;;;;;;;5.34;57.40;101142.97;5061466;27;97462;-68
2021/10/12 07:33:49;;;;;;;1999.90;999.90;;;;;;;5.30;57.43;101149.81;5062006;27;97739;-71
2021/10/12 07:36:17;;;;;;;1999.90;999.90;;;;;;;5.29;57.48;101153.28;5045307;27;97595;-72
2021/10/12 07:38:47;;;;;;;1999.90;999.90;;;;;;;5.28;57.34;101147.94;5059277;27;97900;-71
2021/10/12 07:41:27;;;;;;;1999.90;999.90;;;;;;;5.26;57.45;101153.13;5044148;27;98159;-73
2021/10/12 07:43:55;;;;;;;1999.90;999.90;;;;;;;5.20;57.90;101147.56;5061803;27;99496;-72
2021/10/12 07:46:23;;;;;;;1999.90;999.90;;;;;;;5.21;57.72;101139.72;5043229;27;100218;-72
2021/10/12 07:48:53;;;;;;;1999.90;999.90;;;;;;;5.20;57.82;101137.91;5062221;27;96768;-72
2021/10/12 07:51:38;;;;;;;1999.90;999.90;;;;;;;5.18;57.79;101139.56;5061263;27;97538;-73
2021/10/12 07:54:13;;;;;;;1999.90;999.90;;;;;;;5.15;57.76;101142.06;5061740;27;98166;-73
2021/10/12 07:56:40;;;;;;;1999.90;999.90;;;;;;;5.09;58.10;101139.13;5044006;27;98572;-71
2021/10/12 07:59:10;;;;;;;1999.90;999.90;;;;;;;5.10;58.12;101147.97;5061067;27;96920;-70
2021/10/12 08:01:39;;;;;;;1999.90;999.90;;;;;;;5.10;57.60;101135.66;5060151;27;97795;-69
2021/10/12 08:04:09;;;;;;;1999.90;999.90;;;;;;;4.99;58.54;101134.19;5061968;27;97272;-70
2021/10/12 08:06:37;;;;;;;1999.90;999.90;;;;;;;5.00;58.21;101129.81;5059758;27;99624;-72
2021/10/12 08:09:05;;;;;;;1999.90;999.90;;;;;;;4.98;58.07;101120.94;5043617;27;97310;-73
2021/10/12 08:11:34;;;;;;;1999.90;999.90;;;;;;;4.95;58.18;101111.16;5062979;27;97068;-70
2021/10/12 08:14:05;;;;;;;1999.90;999.90;;;;;;;4.96;58.45;101119.94;5060034;27;100332;-72
2021/10/12 08:16:33;;;;;;;1999.90;999.90;;;;;;;4.96;58.21;101112.94;5060052;27;99975;-71
2021/10/12 08:19:02;;;;;;;1999.90;999.90;;;;;;;5.00;58.10;101108.72;5044394;27;97355;-73
2021/10/12 08:21:31;;;;;;;1999.90;999.90;;;;;;;4.99;57.89;101109.56;5043253;27;97687;-72
2021/10/12 08:24:01;;;;;;;1999.90;999.90;;;;;;;4.99;58.22;101109.56;5060823;27;97380;-71
2021/10/12 08:26:29;;;;;;;1999.90;999.90;;;;;;;5.01;58.10;101102.63;5060035;27;99455;-72
2021/10/12 08:28:59;;;;;;;1999.90;999.90;;;;;;;5.01;58.45;101103.50;5043685;27;96912;-72
2021/10/12 08:31:27;;;;;;;1999.90;999.90;;;;;;;5.08;58.24;101094.22;5076709;27;98888;-71
2021/10/12 08:33:55;;;;;;;1999.90;999.90;;;;;;;5.11;58.35;101084.72;5061673;27;97769;-72
2021/10/12 08:36:24;;;;;;;1999.90;999.90;;;;;;;5.13;58.46;101093.63;5061745;27;97594;-72
2021/10/12 08:39:03;;;;;;;1999.90;999.90;;;;;;;5.18;58.20;101102.63;5059225;27;97910;-73
2021/10/12 08:41:35;;;;;;;1999.90;999.90;;;;;;;5.23;58.27;101105.47;5058992;27;97072;-71
2021/10/12 08:44:04;;;;;;;1999.90;999.90;;;;;;;5.24;58.74;101104.66;5060557;27;97573;-71
2021/10/12 08:46:39;;;;;;;1999.90;999.90;;;;;;;5.28;58.45;101104.00;5041376;27;98787;-73
2021/10/12 08:49:07;;;;;;;1999.90;999.90;;;;;;;5.26;58.93;101108.28;5061883;27;97823;-71
2021/10/12 08:51:35;;;;;;;1999.90;999.90;;;;;;;5.30;58.76;101096.13;5042229;27;97340;-71
2021/10/12 08:54:03;;;;;;;1999.90;999.90;;;;;;;5.32;58.61;101098.00;5061983;27;98568;-70
2021/10/12 08:56:31;;;;;;;1999.90;999.90;;;;;;;5.31;58.79;101093.56;5059366;27;97515;-72
2021/10/12 08:58:58;;;;;;;1999.90;999.90;;;;;;;5.33;58.54;101094.53;5060173;27;98003;-72
2021/10/12 09:01:30;;;;;;;1999.90;999.90;;;;;;;5.29;58.57;101099.59;5059500;27;97474;-69
2021/10/12 09:04:07;;;;;;;1999.90;999.90;;;;;;;5.25;59.33;101095.91;5059280;27;100565;-72
2021/10/12 09:06:36;;;;;;;1999.90;999.90;;;;;;;5.31;58.73;101087.38;5059941;27;97881;-71
2021/10/12 09:09:15;;;;;;;1999.90;999.90;;;;;;;5.34;58.79;101091.06;5060700;27;97782;-72
2021/10/12 09:11:44;;;;;;;1999.90;999.90;;;;;;;5.38;58.83;101085.09;5059248;27;96937;-72
2021/10/12 09:14:12;;;;;;;1999.90;999.90;;;;;;;5.47;58.30;101097.81;5061281;27;98863;-71
2021/10/12 09:16:44;;;;;;;1999.90;999.90;;;;;;;5.52;58.36;101091.91;5058743;27;99419;-71
2021/10/12 09:19:14;;;;;;;1999.90;999.90;;;;;;;5.59;58.30;101090.47;5059909;27;97307;-71
2021/10/12 09:21:43;;;;;;;1999.90;999.90;;;;;;;5.67;58.24;101089.06;5061666;27;97590;-71
2021/10/12 09:24:13;;;;;;;1999.90;999.90;;;;;;;5.69;58.54;101098.88;5043156;27;100414;-70
2021/10/12 09:26:43;;;;;;;1999.90;999.90;;;;;;;5.71;58.32;101093.66;5058751;27;100190;-69
2021/10/12 09:29:15;;;;;;;1999.90;999.90;;;;;;;5.74;57.97;101092.06;5060069;27;96932;-70
2021/10/12 09:31:46;;;;;;;1999.90;999.90;;;;;;;5.77;57.97;101092.22;5060226;27;97707;-72
2021/10/12 09:34:15;;;;;;;1999.90;999.90;;;;;;;5.78;57.97;101095.75;5060008;27;98455;-71
2021/10/12 09:36:45;;;;;;;1999.90;999.90;;;;;;;5.78;58.08;101096.66;5059795;27;97429;-69
2021/10/12 09:39:27;;;;;;;1999.90;999.90;;;;;;;5.83;58.19;101096.88;5059407;27;97443;-71
2021/10/12 09:41:56;;;;;;;1999.90;999.90;;;;;;;5.82;58.01;101087.13;5060267;27;98137;-70
2021/10/12 09:44:24;;;;;;;1999.90;999.90;;;;;;;5.89;58.00;101092.75;5059203;27;99104;-70
2021/10/12 09:46:54;;;;;;;1999.90;999.90;;;;;;;5.92;58.00;101090.25;5058655;27;97736;-70
2021/10/12 09:49:23;;;;;;;1999.90;999.90;;;;;;;6.03;57.43;101088.09;5043192;27;97122;-70
2021/10/12 09:51:59;;;;;;;1999.90;999.90;;;;;;;6.11;57.75;101084.03;5057916;27;97886;-72
2021/10/12 09:54:30;;;;;;;1999.90;999.90;;;;;;;6.15;57.35;101084.25;5058235;27;97829;-72
2021/10/12 09:56:59;;;;;;;1999.90;999.90;;;;;;;6.24;57.12;101075.81;5059902;27;97588;-71
2021/10/12 09:59:28;;;;;;;1999.90;999.90;;;;;;;6.32;57.04;101078.81;5064335;27;97700;-73
2021/10/12 10:01:58;;;;;;;1999.90;999.90;;;;;;;6.41;56.60;101081.88;5064135;27;97503;-73
2021/10/12 10:04:27;;;;;;;1999.90;999.90;;;;;;;6.46;56.37;101075.03;5045037;27;99412;-70
2021/10/12 10:07:02;;;;;;;1999.90;999.90;;;;;;;6.50;56.35;101077.88;5061686;27;98544;-71
2021/10/12 10:09:31;;;;;;;1999.90;999.90;;;;;;;6.56;56.02;101071.94;5062475;27;98126;-70
2021/10/12 10:12:00;;;;;;;1999.90;999.90;;;;;;;6.61;55.69;101078.31;5045591;27;97260;-69
2021/10/12 10:14:29;;;;;;;1999.90;999.90;;;;;;;6.60;56.21;101079.13;5045939;27;98526;-72
2021/10/12 10:17:00;;;;;;;1999.90;999.90;;;;;;;6.63;56.31;101079.28;5062332;27;98991;-71
2021/10/12 10:19:31;;;;;;;1999.90;999.90;;;;;;;6.74;56.15;101078.00;5063207;27;97863;-70
2021/10/12 10:21:59;;;;;;;1999.90;999.90;;;;;;;6.83;55.44;101075.72;5045172;27;98080;-73
2021/10/12 10:24:42;;;;;;;1999.90;999.90;;;;;;;6.85;55.51;101072.28;5045998;27;99242;-72
2021/10/12 10:27:35;;;;;;;1999.90;999.90;;;;;;;6.89;55.58;101081.28;5060983;27;100776;-71
2021/10/12 10:30:25;;;;;;;1999.90;999.90;;;;;;;7.01;55.52;101076.47;5062614;27;97230;-70
2021/10/12 10:32:56;;;;;;;1999.90;999.90;;;;;;;7.05;55.06;101078.41;5045308;27;97360;-71
2021/10/12 10:35:35;;;;;;;1999.90;999.90;;;;;;;7.08;54.45;101073.22;5045142;27;98319;-71
2021/10/12 10:38:29;;;;;;;1999.90;999.90;;;;;;;7.14;54.70;101071.69;5057446;27;99448;-70
2021/10/12 10:41:23;;;;;;;1999.90;999.90;;;;;;;7.06;53.75;101065.22;5062388;27;97342;-72
2021/10/12 10:43:54;;;;;;;1999.90;999.90;;;;;;;7.21;54.29;101059.63;5062853;27;97998;-71
2021/10/12 10:46:42;;;;;;;1999.90;999.90;;;;;;;7.24;54.39;101060.66;5061898;27;97645;-71
2021/10/12 10:49:16;;;;;;;1999.90;999.90;;;;;;;7.31;54.09;101058.25;5062726;27;98927;-70
2021/10/12 10:51:49;;;;;;;1999.90;999.90;;;;;;;7.32;54.11;101053.00;5064624;27;97399;-71
2021/10/12 10:55:00;;;;;;;1999.90;999.90;;;;;;;7.36;54.23;101052.28;5044739;27;97016;-71
2021/10/12 10:57:29;;;;;;;1999.90;999.90;;;;;;;7.35;53.41;101047.81;5060929;27;100657;-70
2021/10/12 11:00:25;;;;;;;1999.90;999.90;;;;;;;7.39;54.04;101039.16;5063198;27;98098;-71
2021/10/12 11:02:54;;;;;;;1999.90;999.90;;;;;;;7.42;53.62;101044.59;5050165;27;97409;-70
2021/10/12 11:05:48;;;;;;;1999.90;999.90;;;;;;;7.38;52.50;101040.00;5063387;27;97399;-69
2021/10/12 11:08:19;;;;;;;1999.90;999.90;;;;;;;7.44;53.63;101042.91;5061568;27;98621;-71